Flight Track Log - Related Links

Times and Time Zones

All times are in EDT time to prevent confusion due to time zone crossing. See the RPA4901 flight status page for this flight to view local times or setup timezone preferences in your user account.

Time Position Orientation Groundspeed Altitude Reporting Facility
EDT Latitude Longitude Course Direction KTS MPH feet Rate Location/Type
Sat 07:33:45 AM 35.9031 -78.7717 39° Northeast 196 226 1,400  Level Washington Center
Sat 07:34:39 AM 35.9519 -78.7403 27° Northeast 223 257 3,100 2,143 Climbing Washington Center
Sat 07:35:51 AM 36.0239 -78.7022 23° Northeast 234 269 5,900 2,318 Climbing Washington Center
Sat 07:36:00 AM 36.0935 -78.5663 32° Northeast  Level FlightAware Approximate
Sat 07:36:51 AM 36.0772 -78.6606 32° Northeast 236 272 8,200  Level Washington Center
Sat 07:37:00 AM 36.1750 -78.5028 32° Northeast  Level FlightAware Approximate
Sat 07:37:51 AM 36.1286 -78.6086 39° Northeast 231 266 10,500  Level Washington Center
Sat 07:38:00 AM 36.2520 -78.4314 39° Northeast  Level FlightAware Approximate
Sat 07:38:52 AM 36.1778 -78.5614 38° Northeast 231 266 12,600  Level Washington Center
Sat 07:39:00 AM 36.3270 -78.3564 39° Northeast  Level FlightAware Approximate
Sat 07:39:53 AM 36.2247 -78.5117 41° Northeast 231 266 14,400  Level Washington Center
Sat 07:40:51 AM 36.2847 -78.4497 40° Northeast 242 278 16,100 1,311 Climbing Washington Center
Sat 07:41:52 AM 36.3361 -78.3972 39° Northeast 247 284 17,000 446 Climbing Washington Center
Sat 07:42:52 AM 36.4086 -78.3250 39° Northeast 276 318 17,000  Level Washington Center
Sat 07:43:53 AM 36.4814 -78.2503 40° Northeast 312 359 17,000 555 Level Washington Center
Sat 07:44:51 AM 36.5558 -78.1778 38° Northeast 325 374 18,100 1,059 Climbing Washington Center
Sat 07:45:52 AM 36.6158 -78.1125 41° Northeast 331 381 19,100 984 Climbing Washington Center
Sat 07:46:53 AM 36.6839 -78.0419 40° Northeast 331 381 20,100 908 Climbing Washington Center
Sat 07:47:51 AM 36.7522 -77.9692 40° Northeast 325 374 20,900 814 Climbing Washington Center
Sat 07:48:51 AM 36.8203 -77.8986 40° Northeast 320 368 21,700 793 Climbing Washington Center
Sat 07:49:52 AM 36.8967 -77.8358 33° Northeast 320 368 22,500 645 Climbing Washington Center
Sat 07:50:52 AM 36.9728 -77.7731 33° Northeast 325 374 23,000 248 Climbing Washington Center
Sat 07:51:53 AM 37.0511 -77.7075 34° Northeast 325 374 23,000  Level Washington Center
Sat 07:52:50 AM 37.1317 -77.6369 35° Northeast 337 388 23,000  Level Washington Center
Sat 07:53:51 AM 37.2164 -77.5661 34° Northeast 350 403 23,000  Level Washington Center
Sat 07:54:52 AM 37.3008 -77.4953 34° Northeast 355 409 23,000  Level Washington Center
Sat 07:55:53 AM 37.3875 -77.4214 34° Northeast 361 415 23,000  Level Washington Center
Sat 07:56:51 AM 37.4742 -77.3450 35° Northeast 366 421 23,000  Level Washington Center
Sat 07:57:52 AM 37.5567 -77.2658 37° Northeast 366 421 23,000  Level Washington Center
Sat 07:58:53 AM 37.6414 -77.1783 39° Northeast 371 427 23,000  Level Washington Center
Sat 07:59:53 AM 37.7303 -77.0858 39° Northeast 376 433 23,000 -407 Level Washington Center
Sat 08:00:51 AM 37.8144 -77.0114 35° Northeast 376 433 22,200 -1,160 Descending Washington Center
Sat 08:01:52 AM 37.9008 -76.9392 33° Northeast 365 420 20,700 -1,475 Descending Washington Center
Sat 08:02:53 AM 37.9808 -76.8669 35° Northeast 365 420 19,200 -857 Descending Washington Center
Sat 08:03:51 AM 38.0544 -76.8022 35° Northeast 365 420 19,000 -102 Descending Washington Center
Sat 08:04:51 AM 38.1344 -76.7269 36° Northeast 360 414 19,000  Level Washington Center
Sat 08:05:52 AM 38.2164 -76.6567 34° Northeast 360 414 19,000  Level Washington Center
Sat 08:06:52 AM 38.2964 -76.5839 36° Northeast 360 414 19,000 -446 Level Washington Center
Sat 08:07:53 AM 38.3781 -76.5133 34° Northeast 360 414 18,100 -1,412 Descending Washington Center
Sat 08:08:51 AM 38.4581 -76.4428 35° Northeast 360 414 16,200 -1,831 Descending Washington Center
Sat 08:09:51 AM 38.5314 -76.3747 36° Northeast 343 395 14,500 -1,537 Descending Washington Center
Sat 08:10:52 AM 38.6047 -76.3117 34° Northeast 330 380 13,100 -744 Descending Washington Center
Sat 08:11:52 AM 38.6883 -76.2806 16° North 314 361 13,000 -446 Descending Washington Center
Sat 08:12:53 AM 38.7739 -76.2442 18° North 308 354 12,200 -950 Descending Washington Center
Sat 08:13:52 AM 38.8556 -76.1994 23° Northeast 308 354 11,100 -600 Descending Washington Center
Sat 08:14:53 AM 38.9392 -76.1494 25° Northeast 310 357 11,000 -50 Descending Washington Center
Sat 08:15:51 AM 39.0164 -76.1019 26° Northeast 315 362 11,000  Level Washington Center
Sat 08:16:52 AM 39.0981 -76.0569 23° Northeast 315 362 11,000  Level Washington Center
Sat 08:17:53 AM 39.1772 -76.0119 24° Northeast 315 362 11,000  Level Washington Center
Sat 08:18:53 AM 39.2589 -75.9642 24° Northeast 315 362 11,000  Level Washington Center
Sat 08:21:19 AM 39.4667 -75.8500 23° Northeast 307 353 11,000  Level Philadelphia TRACON
Sat 08:22:20 AM 39.5333 -75.7833 38° Northeast 309 356 11,000  Level Philadelphia TRACON
Sat 08:23:20 AM 39.6000 -75.7167 38° Northeast 307 353 11,000 -50 Level Philadelphia TRACON
Sat 08:24:20 AM 39.6500 -75.6333 52° Northeast 306 352 10,900 -400 Descending Philadelphia TRACON
Sat 08:25:20 AM 39.7000 -75.5333 57° Northeast 311 358 10,200 -650 Descending Philadelphia TRACON
Sat 08:26:20 AM 39.7167 -75.4500 75° East 275 316 9,600 -600 Descending Philadelphia TRACON
Sat 08:27:20 AM 39.7500 -75.3500 67° East 279 321 9,000 -300 Descending Philadelphia TRACON
Sat 08:28:20 AM 39.7833 -75.2667 62° Northeast 279 321 9,000  Level Philadelphia TRACON
Sat 08:29:20 AM 39.8000 -75.1667 78° East 277 319 9,000 -150 Level Philadelphia TRACON
Sat 08:30:20 AM 39.8333 -75.0667 67° East 273 314 8,700 -550 Descending Philadelphia TRACON
Sat 08:31:20 AM 39.8667 -74.9833 62° Northeast 257 296 7,900 -700 Descending Philadelphia TRACON
Sat 08:32:20 AM 39.9167 -74.9167 46° Northeast 260 299 7,300 -391 Descending Philadelphia TRACON
Sat 08:33:38 AM 39.9667 -74.8333 52° Northeast 255 293 7,000 -136 Descending New York TRACON
Sat 08:34:32 AM 40.0167 -74.7667 46° Northeast 257 296 7,000  Level New York TRACON
Sat 08:35:26 AM 40.0500 -74.7000 57° Northeast 249 287 7,000  Level New York TRACON
Sat 08:36:26 AM 40.1000 -74.6333 46° Northeast 250 288 7,000  Level New York TRACON
Sat 08:37:32 AM 40.1500 -74.5667 46° Northeast 257 296 7,000  Level New York TRACON
Sat 08:38:26 AM 40.2000 -74.5000 46° Northeast 258 297 7,000 -316 Level New York TRACON
Sat 08:39:26 AM 40.2500 -74.4500 37° Northeast 245 282 6,400 -789 Descending New York TRACON
Sat 08:40:20 AM 40.3000 -74.4167 27° Northeast 227 261 5,500 -947 Descending New York TRACON
Sat 08:41:20 AM 40.3667 -74.3667 30° Northeast 245 282 4,600 -1,000 Descending New York TRACON
Sat 08:42:14 AM 40.4167 -74.3333 27° Northeast 245 282 3,600 -789 Descending New York TRACON
Sat 08:43:14 AM 40.4833 -74.3000 21° North 237 273 3,100 -263 Descending New York TRACON
Sat 08:44:08 AM 40.5333 -74.2667 27° Northeast 204 235 3,100 -368 Level New York TRACON
Sat 08:45:08 AM 40.5833 -74.2333 27° Northeast 185 213 2,400 -700 Descending New York TRACON

Login

Don't have an account? Register now (free) for customized features, flight alerts, and more!